Terminal Aerodrome Forecast
Issued by NWS

Home | Current Version | Previous Version | Text Only | Print | Product List | Glossary On
Versions: 1 2 3 4 5 6 7 8 9 10 11 12 13 14
000
FTUS45 KVEF 230500
TAFBIH
TAF
KBIH 230523Z 2306/2406 35013KT P6SM FEW120
     FM230900 33008KT P6SM SKC
     FM232300 14012G20KT P6SM SKC
     FM240300 16009KT P6SM SKC=

USA.gov is the U.S. government's official web portal to all federal, state and local government web resources and services.